sensor_id;sensor_type;location;lat;lon;timestamp;P1;durP1;ratioP1;P2;durP2;ratioP2
39890;SDS011;25564;53.312;9.790;2023-02-03T00:01:38;16.03;;;8.70;;
39890;SDS011;25564;53.312;9.790;2023-02-03T00:04:09;19.40;;;9.10;;
39890;SDS011;25564;53.312;9.790;2023-02-03T00:06:41;18.93;;;8.97;;
39890;SDS011;25564;53.312;9.790;2023-02-03T00:09:13;16.67;;;9.00;;
39890;SDS011;25564;53.312;9.790;2023-02-03T00:11:45;21.33;;;9.83;;
39890;SDS011;25564;53.312;9.790;2023-02-03T00:14:16;19.93;;;9.53;;
39890;SDS011;25564;53.312;9.790;2023-02-03T00:16:48;19.07;;;10.43;;
39890;SDS011;25564;53.312;9.790;2023-02-03T00:19:19;23.57;;;10.27;;
39890;SDS011;25564;53.312;9.790;2023-02-03T00:21:50;20.17;;;9.73;;
39890;SDS011;25564;53.312;9.790;2023-02-03T00:24:22;26.37;;;10.03;;
39890;SDS011;25564;53.312;9.790;2023-02-03T00:26:54;18.90;;;8.93;;
39890;SDS011;25564;53.312;9.790;2023-02-03T00:29:25;18.67;;;8.83;;
39890;SDS011;25564;53.312;9.790;2023-02-03T00:31:57;18.83;;;8.27;;
39890;SDS011;25564;53.312;9.790;2023-02-03T00:34:29;15.23;;;7.73;;
39890;SDS011;25564;53.312;9.790;2023-02-03T00:37:00;18.93;;;8.10;;
39890;SDS011;25564;53.312;9.790;2023-02-03T00:39:34;15.47;;;8.30;;
39890;SDS011;25564;53.312;9.790;2023-02-03T00:42:06;12.83;;;7.80;;
39890;SDS011;25564;53.312;9.790;2023-02-03T00:44:38;17.80;;;7.90;;
39890;SDS011;25564;53.312;9.790;2023-02-03T00:47:09;14.73;;;8.23;;
39890;SDS011;25564;53.312;9.790;2023-02-03T00:49:40;17.60;;;8.07;;
39890;SDS011;25564;53.312;9.790;2023-02-03T00:52:12;15.23;;;7.70;;
39890;SDS011;25564;53.312;9.790;2023-02-03T00:54:43;14.83;;;6.87;;
39890;SDS011;25564;53.312;9.790;2023-02-03T00:57:14;15.53;;;7.63;;
39890;SDS011;25564;53.312;9.790;2023-02-03T00:59:46;16.53;;;7.80;;
39890;SDS011;25564;53.312;9.790;2023-02-03T01:02:17;20.63;;;7.70;;
39890;SDS011;25564;53.312;9.790;2023-02-03T01:04:48;18.77;;;6.97;;
39890;SDS011;25564;53.312;9.790;2023-02-03T01:07:20;14.00;;;6.37;;
39890;SDS011;25564;53.312;9.790;2023-02-03T01:09:51;17.30;;;7.70;;
39890;SDS011;25564;53.312;9.790;2023-02-03T01:12:22;17.17;;;7.23;;
39890;SDS011;25564;53.312;9.790;2023-02-03T01:14:54;14.27;;;6.70;;
39890;SDS011;25564;53.312;9.790;2023-02-03T01:17:25;13.20;;;6.80;;
39890;SDS011;25564;53.312;9.790;2023-02-03T01:19:56;13.90;;;6.13;;
39890;SDS011;25564;53.312;9.790;2023-02-03T01:22:28;16.60;;;6.93;;
39890;SDS011;25564;53.312;9.790;2023-02-03T01:25:00;14.17;;;6.67;;
39890;SDS011;25564;53.312;9.790;2023-02-03T01:27:32;15.07;;;6.50;;
39890;SDS011;25564;53.312;9.790;2023-02-03T01:30:03;15.33;;;7.47;;
39890;SDS011;25564;53.312;9.790;2023-02-03T01:32:35;14.23;;;6.07;;
39890;SDS011;25564;53.312;9.790;2023-02-03T01:35:06;12.37;;;6.53;;
39890;SDS011;25564;53.312;9.790;2023-02-03T01:37:38;18.57;;;6.30;;
39890;SDS011;25564;53.312;9.790;2023-02-03T01:40:09;15.10;;;6.40;;
39890;SDS011;25564;53.312;9.790;2023-02-03T01:42:41;15.47;;;7.33;;
39890;SDS011;25564;53.312;9.790;2023-02-03T01:45:12;14.70;;;6.53;;
39890;SDS011;25564;53.312;9.790;2023-02-03T01:47:47;13.80;;;6.17;;
39890;SDS011;25564;53.312;9.790;2023-02-03T01:50:24;16.83;;;6.03;;
39890;SDS011;25564;53.312;9.790;2023-02-03T01:53:01;13.77;;;5.77;;
39890;SDS011;25564;53.312;9.790;2023-02-03T01:55:37;13.17;;;6.13;;
39890;SDS011;25564;53.312;9.790;2023-02-03T01:58:19;17.10;;;6.93;;
39890;SDS011;25564;53.312;9.790;2023-02-03T02:00:55;18.67;;;7.10;;
39890;SDS011;25564;53.312;9.790;2023-02-03T02:03:38;11.73;;;5.93;;
39890;SDS011;25564;53.312;9.790;2023-02-03T02:06:14;16.13;;;5.50;;
39890;SDS011;25564;53.312;9.790;2023-02-03T02:08:46;11.73;;;5.63;;
39890;SDS011;25564;53.312;9.790;2023-02-03T02:11:20;13.83;;;5.43;;
39890;SDS011;25564;53.312;9.790;2023-02-03T02:13:52;14.93;;;5.20;;
39890;SDS011;25564;53.312;9.790;2023-02-03T02:25:10;11.25;;;5.32;;
39890;SDS011;25564;53.312;9.790;2023-02-03T02:34:03;9.88;;;4.93;;
39890;SDS011;25564;53.312;9.790;2023-02-03T02:36:53;8.60;;;4.20;;
39890;SDS011;25564;53.312;9.790;2023-02-03T02:42:29;11.73;;;5.50;;
39890;SDS011;25564;53.312;9.790;2023-02-03T02:45:27;9.93;;;4.57;;
39890;SDS011;25564;53.312;9.790;2023-02-03T02:48:06;11.07;;;4.70;;
39890;SDS011;25564;53.312;9.790;2023-02-03T02:50:44;11.33;;;4.73;;
39890;SDS011;25564;53.312;9.790;2023-02-03T02:53:20;12.80;;;4.43;;
39890;SDS011;25564;53.312;9.790;2023-02-03T02:55:57;7.50;;;3.87;;
39890;SDS011;25564;53.312;9.790;2023-02-03T02:58:31;8.07;;;4.07;;
39890;SDS011;25564;53.312;9.790;2023-02-03T03:01:06;10.50;;;4.30;;
39890;SDS011;25564;53.312;9.790;2023-02-03T03:03:39;8.97;;;3.63;;
39890;SDS011;25564;53.312;9.790;2023-02-03T03:06:15;7.80;;;3.53;;
39890;SDS011;25564;53.312;9.790;2023-02-03T03:08:54;9.97;;;4.20;;
39890;SDS011;25564;53.312;9.790;2023-02-03T03:11:31;11.65;;;3.60;;
39890;SDS011;25564;53.312;9.790;2023-02-03T03:14:05;6.93;;;3.60;;
39890;SDS011;25564;53.312;9.790;2023-02-03T03:16:41;6.30;;;3.60;;
39890;SDS011;25564;53.312;9.790;2023-02-03T03:19:23;6.13;;;2.87;;
39890;SDS011;25564;53.312;9.790;2023-02-03T03:21:58;12.27;;;3.90;;
39890;SDS011;25564;53.312;9.790;2023-02-03T03:24:33;6.10;;;3.80;;
39890;SDS011;25564;53.312;9.790;2023-02-03T03:27:12;10.20;;;4.10;;
39890;SDS011;25564;53.312;9.790;2023-02-03T03:29:54;7.00;;;3.27;;
39890;SDS011;25564;53.312;9.790;2023-02-03T03:32:32;8.60;;;4.43;;
39890;SDS011;25564;53.312;9.790;2023-02-03T03:35:04;12.87;;;3.80;;
39890;SDS011;25564;53.312;9.790;2023-02-03T03:37:43;8.97;;;3.47;;
39890;SDS011;25564;53.312;9.790;2023-02-03T03:40:23;7.37;;;3.73;;
39890;SDS011;25564;53.312;9.790;2023-02-03T03:43:05;10.57;;;4.10;;
39890;SDS011;25564;53.312;9.790;2023-02-03T03:45:46;5.80;;;3.03;;
39890;SDS011;25564;53.312;9.790;2023-02-03T03:48:47;8.80;;;3.47;;
39890;SDS011;25564;53.312;9.790;2023-02-03T03:54:10;14.38;;;3.78;;
39890;SDS011;25564;53.312;9.790;2023-02-03T03:56:52;11.83;;;3.73;;
39890;SDS011;25564;53.312;9.790;2023-02-03T03:59:29;10.33;;;4.57;;
39890;SDS011;25564;53.312;9.790;2023-02-03T04:02:04;7.22;;;3.35;;
39890;SDS011;25564;53.312;9.790;2023-02-03T04:04:36;8.17;;;4.00;;
39890;SDS011;25564;53.312;9.790;2023-02-03T04:07:11;9.20;;;3.50;;
39890;SDS011;25564;53.312;9.790;2023-02-03T04:09:43;12.20;;;4.30;;
39890;SDS011;25564;53.312;9.790;2023-02-03T04:12:17;7.07;;;3.43;;
39890;SDS011;25564;53.312;9.790;2023-02-03T04:14:53;9.90;;;3.50;;
39890;SDS011;25564;53.312;9.790;2023-02-03T04:17:24;7.13;;;3.17;;
39890;SDS011;25564;53.312;9.790;2023-02-03T04:19:56;6.23;;;3.67;;
39890;SDS011;25564;53.312;9.790;2023-02-03T04:22:27;9.77;;;4.23;;
39890;SDS011;25564;53.312;9.790;2023-02-03T04:24:58;11.13;;;3.93;;
39890;SDS011;25564;53.312;9.790;2023-02-03T04:27:30;10.57;;;3.73;;
39890;SDS011;25564;53.312;9.790;2023-02-03T04:30:01;9.70;;;3.50;;
39890;SDS011;25564;53.312;9.790;2023-02-03T04:32:33;13.30;;;4.40;;
39890;SDS011;25564;53.312;9.790;2023-02-03T04:35:05;5.57;;;3.40;;
39890;SDS011;25564;53.312;9.790;2023-02-03T04:37:38;6.23;;;3.03;;
39890;SDS011;25564;53.312;9.790;2023-02-03T04:40:09;7.70;;;3.33;;
39890;SDS011;25564;53.312;9.790;2023-02-03T04:42:41;12.93;;;3.77;;
39890;SDS011;25564;53.312;9.790;2023-02-03T04:45:13;10.53;;;4.07;;
39890;SDS011;25564;53.312;9.790;2023-02-03T04:47:44;10.57;;;3.77;;
39890;SDS011;25564;53.312;9.790;2023-02-03T04:50:15;9.03;;;3.53;;
39890;SDS011;25564;53.312;9.790;2023-02-03T04:52:47;9.70;;;3.60;;
39890;SDS011;25564;53.312;9.790;2023-02-03T04:55:18;9.93;;;3.90;;
39890;SDS011;25564;53.312;9.790;2023-02-03T04:57:53;10.87;;;4.20;;
39890;SDS011;25564;53.312;9.790;2023-02-03T05:00:26;7.97;;;3.83;;
39890;SDS011;25564;53.312;9.790;2023-02-03T05:02:58;5.07;;;2.63;;
39890;SDS011;25564;53.312;9.790;2023-02-03T05:05:30;8.17;;;3.73;;
39890;SDS011;25564;53.312;9.790;2023-02-03T05:08:01;8.60;;;3.83;;
39890;SDS011;25564;53.312;9.790;2023-02-03T05:10:32;5.77;;;2.93;;
39890;SDS011;25564;53.312;9.790;2023-02-03T05:13:04;10.47;;;3.90;;
39890;SDS011;25564;53.312;9.790;2023-02-03T05:15:35;11.33;;;3.83;;
39890;SDS011;25564;53.312;9.790;2023-02-03T05:18:06;8.20;;;4.33;;
39890;SDS011;25564;53.312;9.790;2023-02-03T05:20:38;8.87;;;4.03;;
39890;SDS011;25564;53.312;9.790;2023-02-03T05:23:09;12.07;;;4.30;;
39890;SDS011;25564;53.312;9.790;2023-02-03T05:25:42;10.67;;;4.27;;
39890;SDS011;25564;53.312;9.790;2023-02-03T05:28:13;6.23;;;3.93;;
39890;SDS011;25564;53.312;9.790;2023-02-03T05:30:45;11.13;;;4.13;;
39890;SDS011;25564;53.312;9.790;2023-02-03T05:33:16;8.50;;;4.33;;
39890;SDS011;25564;53.312;9.790;2023-02-03T05:35:48;10.40;;;4.17;;
39890;SDS011;25564;53.312;9.790;2023-02-03T05:38:19;11.90;;;4.47;;
39890;SDS011;25564;53.312;9.790;2023-02-03T05:40:51;8.50;;;3.63;;
39890;SDS011;25564;53.312;9.790;2023-02-03T05:43:41;9.93;;;4.33;;
39890;SDS011;25564;53.312;9.790;2023-02-03T05:46:13;9.80;;;4.40;;
39890;SDS011;25564;53.312;9.790;2023-02-03T05:48:44;9.07;;;3.00;;
39890;SDS011;25564;53.312;9.790;2023-02-03T05:51:15;10.97;;;4.07;;
39890;SDS011;25564;53.312;9.790;2023-02-03T05:53:47;10.57;;;4.33;;
39890;SDS011;25564;53.312;9.790;2023-02-03T05:56:18;9.73;;;4.50;;
39890;SDS011;25564;53.312;9.790;2023-02-03T05:58:49;9.13;;;4.20;;
39890;SDS011;25564;53.312;9.790;2023-02-03T06:01:24;13.93;;;3.80;;
39890;SDS011;25564;53.312;9.790;2023-02-03T06:03:55;12.67;;;3.47;;
39890;SDS011;25564;53.312;9.790;2023-02-03T06:06:27;9.27;;;3.27;;
39890;SDS011;25564;53.312;9.790;2023-02-03T06:09:06;7.73;;;3.10;;
39890;SDS011;25564;53.312;9.790;2023-02-03T06:11:38;8.77;;;3.67;;
39890;SDS011;25564;53.312;9.790;2023-02-03T06:14:12;9.67;;;3.57;;
39890;SDS011;25564;53.312;9.790;2023-02-03T06:16:44;10.20;;;3.30;;
39890;SDS011;25564;53.312;9.790;2023-02-03T06:19:15;9.40;;;3.70;;
39890;SDS011;25564;53.312;9.790;2023-02-03T06:21:46;11.93;;;3.63;;
39890;SDS011;25564;53.312;9.790;2023-02-03T06:24:18;8.07;;;3.50;;
39890;SDS011;25564;53.312;9.790;2023-02-03T06:26:49;6.80;;;2.83;;
39890;SDS011;25564;53.312;9.790;2023-02-03T06:29:20;7.10;;;3.37;;
39890;SDS011;25564;53.312;9.790;2023-02-03T06:31:52;7.27;;;4.07;;
39890;SDS011;25564;53.312;9.790;2023-02-03T06:34:23;6.57;;;3.20;;
39890;SDS011;25564;53.312;9.790;2023-02-03T06:36:55;9.50;;;2.83;;
39890;SDS011;25564;53.312;9.790;2023-02-03T06:39:26;13.13;;;4.63;;
39890;SDS011;25564;53.312;9.790;2023-02-03T06:41:57;9.23;;;3.80;;
39890;SDS011;25564;53.312;9.790;2023-02-03T06:44:29;9.13;;;3.57;;
39890;SDS011;25564;53.312;9.790;2023-02-03T06:47:00;11.27;;;4.30;;
39890;SDS011;25564;53.312;9.790;2023-02-03T06:49:34;8.97;;;3.70;;
39890;SDS011;25564;53.312;9.790;2023-02-03T06:52:06;7.83;;;4.03;;
39890;SDS011;25564;53.312;9.790;2023-02-03T06:54:37;7.27;;;2.83;;
39890;SDS011;25564;53.312;9.790;2023-02-03T06:57:08;7.47;;;3.17;;
39890;SDS011;25564;53.312;9.790;2023-02-03T06:59:40;13.30;;;4.57;;
39890;SDS011;25564;53.312;9.790;2023-02-03T07:02:11;9.40;;;3.83;;
39890;SDS011;25564;53.312;9.790;2023-02-03T07:04:43;10.77;;;4.20;;
39890;SDS011;25564;53.312;9.790;2023-02-03T07:07:15;9.93;;;3.43;;
39890;SDS011;25564;53.312;9.790;2023-02-03T07:09:47;5.97;;;2.67;;
39890;SDS011;25564;53.312;9.790;2023-02-03T07:12:18;12.23;;;4.50;;
39890;SDS011;25564;53.312;9.790;2023-02-03T07:14:49;9.87;;;3.57;;
39890;SDS011;25564;53.312;9.790;2023-02-03T07:17:21;10.70;;;4.60;;
39890;SDS011;25564;53.312;9.790;2023-02-03T07:19:52;12.60;;;3.33;;
39890;SDS011;25564;53.312;9.790;2023-02-03T07:22:23;13.00;;;4.43;;
39890;SDS011;25564;53.312;9.790;2023-02-03T07:24:55;15.20;;;4.40;;
39890;SDS011;25564;53.312;9.790;2023-02-03T07:27:26;10.03;;;3.67;;
39890;SDS011;25564;53.312;9.790;2023-02-03T07:29:59;12.23;;;4.50;;
39890;SDS011;25564;53.312;9.790;2023-02-03T07:32:31;10.33;;;3.97;;
39890;SDS011;25564;53.312;9.790;2023-02-03T07:35:04;6.10;;;3.80;;
39890;SDS011;25564;53.312;9.790;2023-02-03T07:37:35;6.33;;;3.47;;
39890;SDS011;25564;53.312;9.790;2023-02-03T07:40:07;13.00;;;4.47;;
39890;SDS011;25564;53.312;9.790;2023-02-03T07:42:40;7.40;;;2.83;;
39890;SDS011;25564;53.312;9.790;2023-02-03T07:45:14;14.70;;;4.07;;
39890;SDS011;25564;53.312;9.790;2023-02-03T07:47:46;11.17;;;4.20;;
39890;SDS011;25564;53.312;9.790;2023-02-03T07:50:18;12.80;;;3.90;;
39890;SDS011;25564;53.312;9.790;2023-02-03T07:52:50;15.23;;;3.93;;
39890;SDS011;25564;53.312;9.790;2023-02-03T07:55:22;11.53;;;2.90;;
39890;SDS011;25564;53.312;9.790;2023-02-03T07:57:54;11.27;;;3.40;;
39890;SDS011;25564;53.312;9.790;2023-02-03T08:00:28;6.47;;;2.85;;
39890;SDS011;25564;53.312;9.790;2023-02-03T08:03:00;15.97;;;5.37;;
39890;SDS011;25564;53.312;9.790;2023-02-03T08:05:32;10.17;;;2.80;;
39890;SDS011;25564;53.312;9.790;2023-02-03T08:08:03;7.03;;;2.77;;
39890;SDS011;25564;53.312;9.790;2023-02-03T08:10:35;15.97;;;3.30;;
39890;SDS011;25564;53.312;9.790;2023-02-03T08:13:06;17.23;;;3.57;;
39890;SDS011;25564;53.312;9.790;2023-02-03T08:15:38;8.20;;;1.80;;
39890;SDS011;25564;53.312;9.790;2023-02-03T08:18:09;8.90;;;3.20;;
39890;SDS011;25564;53.312;9.790;2023-02-03T08:20:45;10.23;;;2.63;;
39890;SDS011;25564;53.312;9.790;2023-02-03T08:23:16;6.30;;;2.50;;
39890;SDS011;25564;53.312;9.790;2023-02-03T08:25:51;11.00;;;2.43;;
39890;SDS011;25564;53.312;9.790;2023-02-03T08:28:23;15.30;;;2.60;;
39890;SDS011;25564;53.312;9.790;2023-02-03T08:30:54;10.07;;;2.03;;
39890;SDS011;25564;53.312;9.790;2023-02-03T08:33:27;8.20;;;2.50;;
39890;SDS011;25564;53.312;9.790;2023-02-03T08:35:59;4.63;;;1.73;;
39890;SDS011;25564;53.312;9.790;2023-02-03T08:38:31;7.70;;;2.07;;
39890;SDS011;25564;53.312;9.790;2023-02-03T08:41:09;9.17;;;2.60;;
39890;SDS011;25564;53.312;9.790;2023-02-03T08:43:42;12.23;;;2.90;;
39890;SDS011;25564;53.312;9.790;2023-02-03T08:46:14;9.90;;;2.13;;
39890;SDS011;25564;53.312;9.790;2023-02-03T08:48:46;8.10;;;1.60;;
39890;SDS011;25564;53.312;9.790;2023-02-03T08:51:17;9.90;;;1.77;;
39890;SDS011;25564;53.312;9.790;2023-02-03T08:53:49;9.60;;;1.90;;
39890;SDS011;25564;53.312;9.790;2023-02-03T08:56:20;5.90;;;1.87;;
39890;SDS011;25564;53.312;9.790;2023-02-03T08:58:52;11.80;;;1.73;;
39890;SDS011;25564;53.312;9.790;2023-02-03T09:01:26;8.67;;;2.07;;
39890;SDS011;25564;53.312;9.790;2023-02-03T09:03:58;8.03;;;1.77;;
39890;SDS011;25564;53.312;9.790;2023-02-03T09:06:32;8.93;;;2.47;;
39890;SDS011;25564;53.312;9.790;2023-02-03T09:09:03;9.73;;;2.40;;
39890;SDS011;25564;53.312;9.790;2023-02-03T09:11:34;9.07;;;3.10;;
39890;SDS011;25564;53.312;9.790;2023-02-03T09:14:06;11.23;;;1.90;;
39890;SDS011;25564;53.312;9.790;2023-02-03T09:16:37;12.97;;;2.20;;
39890;SDS011;25564;53.312;9.790;2023-02-03T09:19:09;8.83;;;2.80;;
39890;SDS011;25564;53.312;9.790;2023-02-03T09:21:40;9.40;;;2.30;;
39890;SDS011;25564;53.312;9.790;2023-02-03T09:24:17;15.97;;;3.83;;
39890;SDS011;25564;53.312;9.790;2023-02-03T09:26:49;13.53;;;3.60;;
39890;SDS011;25564;53.312;9.790;2023-02-03T09:29:21;23.73;;;4.43;;
39890;SDS011;25564;53.312;9.790;2023-02-03T09:31:53;15.17;;;3.67;;
39890;SDS011;25564;53.312;9.790;2023-02-03T09:34:24;18.77;;;3.90;;
39890;SDS011;25564;53.312;9.790;2023-02-03T09:36:56;20.73;;;4.50;;
39890;SDS011;25564;53.312;9.790;2023-02-03T09:39:27;20.10;;;4.23;;
39890;SDS011;25564;53.312;9.790;2023-02-03T09:47:48;23.70;;;3.47;;
39890;SDS011;25564;53.312;9.790;2023-02-03T09:50:25;26.63;;;5.20;;
39890;SDS011;25564;53.312;9.790;2023-02-03T09:53:03;19.07;;;4.00;;
39890;SDS011;25564;53.312;9.790;2023-02-03T09:55:42;21.37;;;5.90;;
39890;SDS011;25564;53.312;9.790;2023-02-03T09:58:17;26.30;;;4.33;;
39890;SDS011;25564;53.312;9.790;2023-02-03T10:00:53;13.15;;;4.03;;
39890;SDS011;25564;53.312;9.790;2023-02-03T10:03:31;24.90;;;4.93;;
39890;SDS011;25564;53.312;9.790;2023-02-03T10:17:35;18.03;;;4.10;;
39890;SDS011;25564;53.312;9.790;2023-02-03T10:20:15;30.55;;;5.75;;
39890;SDS011;25564;53.312;9.790;2023-02-03T10:23:08;24.60;;;6.67;;
39890;SDS011;25564;53.312;9.790;2023-02-03T10:25:49;12.80;;;5.37;;
39890;SDS011;25564;53.312;9.790;2023-02-03T10:28:36;26.57;;;7.47;;
39890;SDS011;25564;53.312;9.790;2023-02-03T10:31:18;24.17;;;6.33;;
39890;SDS011;25564;53.312;9.790;2023-02-03T10:33:55;27.77;;;5.00;;
39890;SDS011;25564;53.312;9.790;2023-02-03T10:36:57;26.50;;;6.70;;
39890;SDS011;25564;53.312;9.790;2023-02-03T10:39:49;37.63;;;5.65;;
39890;SDS011;25564;53.312;9.790;2023-02-03T10:42:22;22.83;;;4.93;;
39890;SDS011;25564;53.312;9.790;2023-02-03T10:44:57;11.87;;;4.63;;
39890;SDS011;25564;53.312;9.790;2023-02-03T10:47:41;31.52;;;6.72;;
39890;SDS011;25564;53.312;9.790;2023-02-03T10:50:18;23.30;;;4.80;;
39890;SDS011;25564;53.312;9.790;2023-02-03T10:58:33;19.17;;;5.03;;
39890;SDS011;25564;53.312;9.790;2023-02-03T11:01:11;24.27;;;4.73;;
39890;SDS011;25564;53.312;9.790;2023-02-03T11:03:59;32.73;;;4.83;;
39890;SDS011;25564;53.312;9.790;2023-02-03T11:06:33;21.43;;;5.27;;
39890;SDS011;25564;53.312;9.790;2023-02-03T11:09:20;23.93;;;5.97;;
39890;SDS011;25564;53.312;9.790;2023-02-03T11:12:12;17.67;;;5.00;;
39890;SDS011;25564;53.312;9.790;2023-02-03T11:14:46;20.40;;;4.10;;
39890;SDS011;25564;53.312;9.790;2023-02-03T11:17:20;19.23;;;4.17;;
39890;SDS011;25564;53.312;9.790;2023-02-03T11:19:53;21.67;;;5.27;;
39890;SDS011;25564;53.312;9.790;2023-02-03T11:22:35;30.00;;;5.03;;
39890;SDS011;25564;53.312;9.790;2023-02-03T11:25:19;25.23;;;5.75;;
39890;SDS011;25564;53.312;9.790;2023-02-03T11:27:57;28.03;;;4.87;;
39890;SDS011;25564;53.312;9.790;2023-02-03T11:30:34;25.60;;;6.23;;
39890;SDS011;25564;53.312;9.790;2023-02-03T11:33:17;22.17;;;4.23;;
39890;SDS011;25564;53.312;9.790;2023-02-03T11:35:57;26.33;;;4.90;;
39890;SDS011;25564;53.312;9.790;2023-02-03T11:38:33;33.33;;;6.77;;
39890;SDS011;25564;53.312;9.790;2023-02-03T11:41:17;24.47;;;4.73;;
39890;SDS011;25564;53.312;9.790;2023-02-03T11:43:54;31.93;;;6.73;;
39890;SDS011;25564;53.312;9.790;2023-02-03T11:46:25;27.67;;;6.77;;
39890;SDS011;25564;53.312;9.790;2023-02-03T11:49:07;18.57;;;5.03;;
39890;SDS011;25564;53.312;9.790;2023-02-03T11:52:31;19.63;;;5.20;;
39890;SDS011;25564;53.312;9.790;2023-02-03T11:55:07;32.77;;;6.90;;
39890;SDS011;25564;53.312;9.790;2023-02-03T12:06:35;25.37;;;5.53;;
39890;SDS011;25564;53.312;9.790;2023-02-03T12:23:18;24.70;;;5.63;;
39890;SDS011;25564;53.312;9.790;2023-02-03T12:32:28;19.23;;;5.10;;
39890;SDS011;25564;53.312;9.790;2023-02-03T12:35:02;21.03;;;5.10;;
39890;SDS011;25564;53.312;9.790;2023-02-03T12:43:20;13.93;;;3.87;;
39890;SDS011;25564;53.312;9.790;2023-02-03T12:46:00;25.27;;;5.30;;
39890;SDS011;25564;53.312;9.790;2023-02-03T12:54:22;21.80;;;5.17;;
39890;SDS011;25564;53.312;9.790;2023-02-03T12:57:01;14.97;;;4.13;;
39890;SDS011;25564;53.312;9.790;2023-02-03T12:59:40;23.97;;;5.67;;
39890;SDS011;25564;53.312;9.790;2023-02-03T13:02:21;28.03;;;5.10;;
39890;SDS011;25564;53.312;9.790;2023-02-03T13:04:59;22.83;;;4.70;;
39890;SDS011;25564;53.312;9.790;2023-02-03T13:07:37;25.37;;;6.07;;
39890;SDS011;25564;53.312;9.790;2023-02-03T13:10:16;19.87;;;4.63;;
39890;SDS011;25564;53.312;9.790;2023-02-03T13:12:54;24.20;;;4.30;;
39890;SDS011;25564;53.312;9.790;2023-02-03T13:15:31;20.30;;;4.70;;
39890;SDS011;25564;53.312;9.790;2023-02-03T13:18:22;13.40;;;3.27;;
39890;SDS011;25564;53.312;9.790;2023-02-03T13:20:58;16.43;;;4.70;;
39890;SDS011;25564;53.312;9.790;2023-02-03T13:23:29;22.13;;;4.47;;
39890;SDS011;25564;53.312;9.790;2023-02-03T13:29:01;28.03;;;6.97;;
39890;SDS011;25564;53.312;9.790;2023-02-03T13:32:15;15.13;;;3.70;;
39890;SDS011;25564;53.312;9.790;2023-02-03T13:37:55;19.40;;;4.40;;
39890;SDS011;25564;53.312;9.790;2023-02-03T13:43:45;30.87;;;4.80;;
39890;SDS011;25564;53.312;9.790;2023-02-03T13:51:31;21.53;;;4.47;;
39890;SDS011;25564;53.312;9.790;2023-02-03T13:54:07;21.83;;;5.47;;
39890;SDS011;25564;53.312;9.790;2023-02-03T13:56:51;23.30;;;4.53;;
39890;SDS011;25564;53.312;9.790;2023-02-03T14:04:50;11.87;;;2.70;;
39890;SDS011;25564;53.312;9.790;2023-02-03T14:07:33;19.97;;;4.80;;
39890;SDS011;25564;53.312;9.790;2023-02-03T14:10:12;18.33;;;4.07;;
39890;SDS011;25564;53.312;9.790;2023-02-03T14:18:00;13.33;;;3.83;;
39890;SDS011;25564;53.312;9.790;2023-02-03T14:20:51;21.83;;;4.47;;
39890;SDS011;25564;53.312;9.790;2023-02-03T14:23:27;26.35;;;4.00;;
39890;SDS011;25564;53.312;9.790;2023-02-03T14:26:16;15.13;;;3.90;;
39890;SDS011;25564;53.312;9.790;2023-02-03T14:28:51;20.10;;;4.13;;
39890;SDS011;25564;53.312;9.790;2023-02-03T14:31:24;21.17;;;4.77;;
39890;SDS011;25564;53.312;9.790;2023-02-03T14:34:00;14.77;;;2.97;;
39890;SDS011;25564;53.312;9.790;2023-02-03T14:36:38;18.87;;;4.43;;
39890;SDS011;25564;53.312;9.790;2023-02-03T14:47:26;24.25;;;4.25;;
39890;SDS011;25564;53.312;9.790;2023-02-03T14:53:12;14.87;;;4.27;;
39890;SDS011;25564;53.312;9.790;2023-02-03T14:57:04;23.70;;;4.50;;
39890;SDS011;25564;53.312;9.790;2023-02-03T14:59:29;27.23;;;4.73;;
39890;SDS011;25564;53.312;9.790;2023-02-03T15:02:10;22.50;;;4.33;;
39890;SDS011;25564;53.312;9.790;2023-02-03T15:04:45;22.53;;;7.23;;
39890;SDS011;25564;53.312;9.790;2023-02-03T15:07:33;22.10;;;3.75;;
39890;SDS011;25564;53.312;9.790;2023-02-03T15:10:15;27.13;;;5.17;;
39890;SDS011;25564;53.312;9.790;2023-02-03T15:12:51;24.13;;;5.33;;
39890;SDS011;25564;53.312;9.790;2023-02-03T15:15:25;22.97;;;5.17;;
39890;SDS011;25564;53.312;9.790;2023-02-03T15:18:18;35.23;;;6.00;;
39890;SDS011;25564;53.312;9.790;2023-02-03T15:20:52;22.10;;;4.83;;
39890;SDS011;25564;53.312;9.790;2023-02-03T15:23:28;16.73;;;4.13;;
39890;SDS011;25564;53.312;9.790;2023-02-03T15:26:10;15.40;;;4.37;;
39890;SDS011;25564;53.312;9.790;2023-02-03T15:28:52;12.95;;;3.40;;
39890;SDS011;25564;53.312;9.790;2023-02-03T15:31:36;33.63;;;6.63;;
39890;SDS011;25564;53.312;9.790;2023-02-03T15:34:29;25.67;;;3.93;;
39890;SDS011;25564;53.312;9.790;2023-02-03T15:37:22;17.63;;;4.60;;
39890;SDS011;25564;53.312;9.790;2023-02-03T15:45:34;26.17;;;4.17;;
39890;SDS011;25564;53.312;9.790;2023-02-03T15:48:16;18.60;;;4.23;;
39890;SDS011;25564;53.312;9.790;2023-02-03T15:56:44;20.50;;;5.60;;
39890;SDS011;25564;53.312;9.790;2023-02-03T16:02:06;20.73;;;4.53;;
39890;SDS011;25564;53.312;9.790;2023-02-03T16:04:46;10.53;;;3.33;;
39890;SDS011;25564;53.312;9.790;2023-02-03T16:07:24;20.20;;;4.57;;
39890;SDS011;25564;53.312;9.790;2023-02-03T16:09:59;7.07;;;3.13;;
39890;SDS011;25564;53.312;9.790;2023-02-03T16:12:31;14.73;;;3.47;;
39890;SDS011;25564;53.312;9.790;2023-02-03T16:15:04;23.00;;;4.57;;
39890;SDS011;25564;53.312;9.790;2023-02-03T16:17:35;22.00;;;4.83;;
39890;SDS011;25564;53.312;9.790;2023-02-03T16:22:44;28.43;;;6.07;;
39890;SDS011;25564;53.312;9.790;2023-02-03T16:27:56;23.30;;;4.27;;
39890;SDS011;25564;53.312;9.790;2023-02-03T16:30:52;17.57;;;3.57;;
39890;SDS011;25564;53.312;9.790;2023-02-03T16:33:50;23.10;;;4.20;;
39890;SDS011;25564;53.312;9.790;2023-02-03T16:36:42;23.57;;;4.27;;
39890;SDS011;25564;53.312;9.790;2023-02-03T16:39:33;18.57;;;4.20;;
39890;SDS011;25564;53.312;9.790;2023-02-03T16:42:22;25.37;;;4.67;;
39890;SDS011;25564;53.312;9.790;2023-02-03T16:45:13;15.57;;;4.50;;
39890;SDS011;25564;53.312;9.790;2023-02-03T16:48:07;16.47;;;4.23;;
39890;SDS011;25564;53.312;9.790;2023-02-03T16:51:02;24.30;;;5.13;;
39890;SDS011;25564;53.312;9.790;2023-02-03T16:53:36;16.03;;;4.27;;
39890;SDS011;25564;53.312;9.790;2023-02-03T16:56:07;18.13;;;3.47;;
39890;SDS011;25564;53.312;9.790;2023-02-03T16:58:39;12.03;;;2.87;;
39890;SDS011;25564;53.312;9.790;2023-02-03T17:01:10;17.23;;;3.97;;
39890;SDS011;25564;53.312;9.790;2023-02-03T17:03:42;18.23;;;5.13;;
39890;SDS011;25564;53.312;9.790;2023-02-03T17:06:14;25.87;;;5.13;;
39890;SDS011;25564;53.312;9.790;2023-02-03T17:08:45;23.00;;;4.97;;
39890;SDS011;25564;53.312;9.790;2023-02-03T17:11:18;21.10;;;4.30;;
39890;SDS011;25564;53.312;9.790;2023-02-03T17:13:51;32.97;;;5.33;;
39890;SDS011;25564;53.312;9.790;2023-02-03T17:16:23;13.77;;;3.17;;
39890;SDS011;25564;53.312;9.790;2023-02-03T17:18:56;22.07;;;3.97;;
39890;SDS011;25564;53.312;9.790;2023-02-03T17:21:27;12.23;;;3.67;;
39890;SDS011;25564;53.312;9.790;2023-02-03T17:23:59;27.37;;;5.47;;
39890;SDS011;25564;53.312;9.790;2023-02-03T17:26:31;29.53;;;4.73;;
39890;SDS011;25564;53.312;9.790;2023-02-03T17:29:04;24.20;;;4.63;;
39890;SDS011;25564;53.312;9.790;2023-02-03T17:31:35;23.00;;;4.43;;
39890;SDS011;25564;53.312;9.790;2023-02-03T17:34:07;19.30;;;5.67;;
39890;SDS011;25564;53.312;9.790;2023-02-03T17:36:38;18.23;;;4.17;;
39890;SDS011;25564;53.312;9.790;2023-02-03T17:39:09;29.10;;;5.70;;
39890;SDS011;25564;53.312;9.790;2023-02-03T17:41:58;19.50;;;5.37;;
39890;SDS011;25564;53.312;9.790;2023-02-03T17:44:47;37.17;;;6.93;;
39890;SDS011;25564;53.312;9.790;2023-02-03T17:47:36;27.77;;;4.70;;
39890;SDS011;25564;53.312;9.790;2023-02-03T17:50:25;14.37;;;3.83;;